Ione, Nevada
Current Conditions -  °F | °C
As of 5:53 AM on Wednesday 22 Oct 2014 (Local Time) from KLOL Reporting Station
Clear Clear  
Wind Chill: 20°   Ceiling: Unl
Heat Index: 28°   Visibility: 10mi
Dew Point: 14°   Wind: 8mph
Humidity: 56%   Direction: 120°ESE
Pressure: 30.12"   Gusts: NA
Location:  39.7407°N, 117.085°W
Report Text: KLOL 221253Z AUTO 12007KT 10SM CLR M02/M10 A3012 RMK AO2 SLP203 T10221100
Loading
Personal Weather Stations






























Interactive Weather Map
Tropical Storm Tracking
New forecast layout! Learn more

10-Day Weather Forecast

Advertisements
Track Severe Weather on mobile